Time;durP1;ratioP1;P1;durP2;ratioP2;P2;SDS_P1;SDS_P2;PMS_P1;PMS_P2;Temp;Humidity;BMP_temperature;BMP_pressure;BME280_temperature;BME280_humidity;BME280_pressure;Samples;Min_cycle;Max_cycle;Signal;HPM_P1;HPM_P2
2022/05/23 00:00:19;;;;;;;7.13;2.95;;;;;;;16.79;nan;99611.06;5036506;28;20100;-68
2022/05/23 00:02:47;;;;;;;8.02;2.50;;;;;;;16.79;nan;99611.06;5040639;28;20045;-69
2022/05/23 00:05:14;;;;;;;8.18;2.95;;;;;;;16.77;nan;99608.56;5049937;28;20045;-69
2022/05/23 00:07:45;;;;;;;6.63;2.50;;;;;;;16.74;nan;99603.53;5052072;28;20457;-70
2022/05/23 00:10:16;;;;;;;4.72;2.38;;;;;;;16.71;nan;99598.50;5042536;28;20174;-71
2022/05/23 00:12:43;;;;;;;5.97;2.60;;;;;;;16.68;nan;99586.53;5052281;28;20045;-71
2022/05/23 00:15:13;;;;;;;7.63;2.70;;;;;;;16.67;nan;99587.44;5037535;28;20532;-71
2022/05/23 00:17:40;;;;;;;7.72;2.60;;;;;;;16.66;nan;99596.16;5049465;28;20109;-70
2022/05/23 00:20:14;;;;;;;8.90;2.40;;;;;;;16.63;nan;99598.09;5046936;28;20096;-69
2022/05/23 00:22:42;;;;;;;6.40;2.63;;;;;;;16.60;nan;99579.16;5038112;28;20060;-70
2022/05/23 00:25:11;;;;;;;7.13;2.40;;;;;;;16.59;nan;99572.28;5048816;28;20519;-70
2022/05/23 00:27:42;;;;;;;7.88;2.55;;;;;;;16.56;nan;99562.06;5049233;28;20551;-70
2022/05/23 00:30:19;;;;;;;5.03;2.40;;;;;;;16.55;nan;99563.00;5037617;28;20077;-69
2022/05/23 00:35:33;;;;;;;4.55;2.58;;;;;;;16.45;nan;99556.66;5049914;28;20050;-70
2022/05/23 00:38:01;;;;;;;5.90;2.78;;;;;;;16.38;nan;99544.94;5051725;28;20142;-70
2022/05/23 00:43:13;;;;;;;4.38;2.47;;;;;;;16.32;nan;99540.94;5046631;28;20526;-69
2022/05/23 00:43:40;;;;;;;5.35;2.47;;;;;;;16.24;nan;99514.50;5040172;28;20056;-71
2022/05/23 00:46:13;;;;;;;6.15;2.30;;;;;;;16.17;nan;99501.06;5049719;28;20541;-71
2022/05/23 00:48:40;;;;;;;7.03;2.40;;;;;;;16.10;nan;99502.31;5048615;28;20045;-72
2022/05/23 00:51:15;;;;;;;7.95;2.22;;;;;;;16.06;nan;99511.22;5050651;28;20119;-71
2022/05/23 00:53:50;;;;;;;7.07;2.47;;;;;;;16.05;nan;99532.91;5050836;28;20057;-72
2022/05/23 00:56:22;;;;;;;6.18;2.28;;;;;;;16.08;nan;99543.13;5066503;28;20121;-73
2022/05/23 00:58:57;;;;;;;5.05;2.15;;;;;;;16.11;nan;99542.94;5038207;28;20050;-69
2022/05/23 01:01:30;;;;;;;7.47;2.30;;;;;;;16.13;nan;99533.31;5045330;28;20049;-68
2022/05/23 01:04:17;;;;;;;5.72;2.28;;;;;;;16.18;nan;99533.88;5050388;28;20061;-68
2022/05/23 01:07:06;;;;;;;9.48;2.53;;;;;;;16.21;nan;99528.53;5050065;28;20065;-69
2022/05/23 01:09:51;;;;;;;7.70;2.40;;;;;;;16.25;nan;99529.19;5035938;28;20045;-68
2022/05/23 01:12:29;;;;;;;5.00;2.35;;;;;;;16.24;nan;99530.09;5024941;28;20436;-70
2022/05/23 01:15:00;;;;;;;7.90;2.60;;;;;;;16.25;nan;99531.78;5062525;28;20037;-69
2022/05/23 01:17:29;;;;;;;7.85;2.30;;;;;;;16.25;nan;99523.97;5045504;28;20061;-69
2022/05/23 01:20:03;;;;;;;6.35;2.55;;;;;;;16.23;nan;99528.44;5034230;28;20052;-69
2022/05/23 01:22:40;;;;;;;7.15;2.08;;;;;;;16.21;nan;99514.72;5049375;28;20054;-69
2022/05/23 01:25:45;;;;;;;10.07;2.22;;;;;;;16.21;nan;99525.09;5067047;28;20048;-69
2022/05/23 01:28:24;;;;;;;7.15;2.47;;;;;;;16.21;nan;99528.53;5065205;28;20120;-68
2022/05/23 01:30:52;;;;;;;7.30;2.13;;;;;;;16.21;nan;99522.50;5044962;28;20053;-69
2022/05/23 01:33:24;;;;;;;9.82;2.58;;;;;;;16.17;nan;99524.44;5059715;28;20058;-68
2022/05/23 01:35:51;;;;;;;6.03;2.38;;;;;;;16.13;nan;99531.53;5047724;28;20049;-69
2022/05/23 01:38:18;;;;;;;4.53;2.17;;;;;;;16.11;nan;99538.63;5040839;28;20077;-68
2022/05/23 01:41:09;;;;;;;5.57;1.95;;;;;;;16.12;nan;99523.84;5063585;28;20586;-69
2022/05/23 01:43:41;;;;;;;5.18;2.50;;;;;;;16.14;nan;99519.41;5046472;28;20041;-70
2022/05/23 01:46:27;;;;;;;5.30;2.38;;;;;;;16.20;nan;99515.63;5049110;28;20045;-70
2022/05/23 01:49:29;;;;;;;6.45;2.42;;;;;;;16.22;nan;99519.81;5027595;28;20120;-72
2022/05/23 01:51:59;;;;;;;5.28;2.22;;;;;;;16.22;nan;99519.81;5056984;28;20165;-72
2022/05/23 01:54:33;;;;;;;4.63;2.25;;;;;;;16.19;nan;99516.56;5047142;28;20345;-72
2022/05/23 01:57:03;;;;;;;5.43;2.80;;;;;;;16.13;nan;99512.53;5049257;28;20435;-71
2022/05/23 02:02:20;;;;;;;5.53;2.80;;;;;;;16.10;nan;99518.75;5046678;28;20038;-71
2022/05/23 02:04:47;;;;;;;5.53;2.92;;;;;;;16.11;nan;99522.16;5048621;28;20045;-71
2022/05/23 02:07:17;;;;;;;8.15;3.13;;;;;;;16.10;nan;99520.50;5049891;28;20069;-71
2022/05/23 02:09:47;;;;;;;5.45;3.00;;;;;;;16.08;nan;99514.53;5047000;28;20724;-70
2022/05/23 02:12:19;;;;;;;7.47;2.80;;;;;;;16.05;nan;99520.75;5042414;28;20065;-71
2022/05/23 02:14:50;;;;;;;6.10;3.00;;;;;;;16.02;nan;99513.16;5048229;28;20081;-71
2022/05/23 02:17:44;;;;;;;5.88;2.85;;;;;;;15.99;nan;99508.13;5051195;28;20545;-70
2022/05/23 02:20:13;;;;;;;6.95;3.00;;;;;;;15.97;nan;99508.19;5050554;28;20656;-69
2022/05/23 02:22:41;;;;;;;8.13;3.00;;;;;;;15.94;nan;99502.34;5040486;28;20056;-70
2022/05/23 02:25:24;;;;;;;5.57;3.00;;;;;;;15.90;nan;99498.25;5046698;28;20176;-70
2022/05/23 02:27:51;;;;;;;9.75;3.17;;;;;;;15.89;nan;99496.56;5027407;28;20054;-71
2022/05/23 02:30:20;;;;;;;5.88;2.45;;;;;;;15.89;nan;99501.78;5048703;28;20049;-69
2022/05/23 02:32:49;;;;;;;9.68;3.33;;;;;;;15.87;nan;99507.06;5050216;28;20046;-70
2022/05/23 02:35:19;;;;;;;6.00;2.60;;;;;;;15.79;nan;99497.06;5047662;28;20503;-69
2022/05/23 02:37:47;;;;;;;8.18;2.97;;;;;;;15.75;nan;99495.53;5050558;28;20104;-71
2022/05/23 02:40:18;;;;;;;6.32;3.20;;;;;;;15.72;nan;99487.09;5046010;28;20046;-71
2022/05/23 02:42:45;;;;;;;7.25;3.67;;;;;;;15.65;nan;99477.06;5048714;28;20046;-70
2022/05/23 02:45:14;;;;;;;7.65;3.15;;;;;;;15.59;nan;99469.59;5049755;28;20057;-70
2022/05/23 02:47:47;;;;;;;6.95;3.33;;;;;;;15.53;nan;99473.34;5048614;28;20046;-70
2022/05/23 02:50:15;;;;;;;7.30;3.30;;;;;;;15.51;nan;99472.63;5039399;28;20833;-71
2022/05/23 02:52:45;;;;;;;8.10;3.25;;;;;;;15.48;nan;99456.34;5036683;28;20040;-71
2022/05/23 02:55:39;;;;;;;6.90;3.40;;;;;;;15.47;nan;99465.06;5047968;28;20464;-70
2022/05/23 02:58:07;;;;;;;6.93;3.28;;;;;;;15.44;nan;99466.06;5050047;28;20897;-71
2022/05/23 03:00:35;;;;;;;7.15;3.78;;;;;;;15.41;nan;99462.81;5047489;28;20096;-72
2022/05/23 03:03:08;;;;;;;9.27;3.88;;;;;;;15.40;nan;99461.13;5053821;28;20553;-70
2022/05/23 03:05:45;;;;;;;7.72;3.72;;;;;;;15.35;nan;99456.19;5050177;28;20041;-70
2022/05/23 03:08:17;;;;;;;9.02;3.67;;;;;;;15.33;nan;99451.09;5046002;28;20053;-70
2022/05/23 03:10:48;;;;;;;7.05;3.92;;;;;;;15.32;nan;99445.97;5036315;28;20042;-70
2022/05/23 03:13:15;;;;;;;6.63;3.80;;;;;;;15.29;nan;99439.19;5045795;28;20525;-70
2022/05/23 03:15:42;;;;;;;7.55;4.18;;;;;;;15.30;nan;99435.69;5042850;28;20071;-70
2022/05/23 03:18:10;;;;;;;9.18;4.05;;;;;;;15.29;nan;99428.00;5043278;28;20096;-70
2022/05/23 03:20:42;;;;;;;7.97;3.88;;;;;;;15.28;nan;99421.94;5067505;28;20555;-70
2022/05/23 03:28:45;;;;;;;6.32;3.65;;;;;;;15.31;nan;99395.03;5049856;28;20124;-70
2022/05/23 03:31:12;;;;;;;7.60;3.78;;;;;;;15.34;nan;99384.47;5059615;28;20046;-70
2022/05/23 03:33:40;;;;;;;7.53;4.05;;;;;;;15.36;nan;99374.84;5051538;28;20033;-70
2022/05/23 03:36:08;;;;;;;7.63;4.05;;;;;;;15.36;nan;99372.25;5054746;28;20069;-70
2022/05/23 03:38:36;;;;;;;8.82;4.20;;;;;;;15.33;nan;99368.06;5048206;28;20038;-71
2022/05/23 03:41:09;;;;;;;7.95;4.10;;;;;;;15.31;nan;99366.50;5037223;28;20511;-71
2022/05/23 03:43:37;;;;;;;9.40;4.20;;;;;;;15.29;nan;99365.72;5047697;28;20042;-69
2022/05/23 03:46:13;;;;;;;7.22;4.50;;;;;;;15.25;nan;99366.81;5043252;28;20049;-70
2022/05/23 03:48:41;;;;;;;11.50;4.20;;;;;;;15.20;nan;99364.47;5046816;28;20848;-71
2022/05/23 03:51:11;;;;;;;10.52;4.60;;;;;;;15.16;nan;99360.38;5048959;28;20050;-71
2022/05/23 03:53:38;;;;;;;9.07;4.50;;;;;;;15.14;nan;99355.25;5032906;28;20054;-70
2022/05/23 03:56:07;;;;;;;7.70;4.57;;;;;;;15.13;nan;99342.38;5045151;28;20050;-70
2022/05/23 03:58:37;;;;;;;8.48;4.68;;;;;;;15.10;nan;99332.19;5054626;28;20120;-71
2022/05/23 04:01:30;;;;;;;8.40;4.38;;;;;;;15.09;nan;99326.16;5055895;28;20066;-70
2022/05/23 04:04:18;;;;;;;7.65;4.05;;;;;;;15.09;nan;99326.16;5070186;28;20123;-69
2022/05/23 04:07:08;;;;;;;8.55;4.55;;;;;;;15.12;nan;99323.38;5041597;28;20478;-71
2022/05/23 04:09:48;;;;;;;10.98;4.20;;;;;;;15.16;nan;99324.06;5050397;28;20048;-69
2022/05/23 04:12:19;;;;;;;10.63;4.25;;;;;;;15.20;nan;99320.38;5051770;28;20042;-70
2022/05/23 04:15:09;;;;;;;9.00;4.40;;;;;;;15.24;nan;99323.63;5043002;28;20100;-69
2022/05/23 04:17:57;;;;;;;9.10;4.22;;;;;;;15.27;nan;99324.28;5036861;28;20054;-71
2022/05/23 04:20:26;;;;;;;7.85;4.60;;;;;;;15.28;nan;99320.78;5036463;28;20038;-70
2022/05/23 04:23:03;;;;;;;9.15;4.40;;;;;;;15.31;nan;99328.41;5042152;28;20042;-71
2022/05/23 04:25:31;;;;;;;7.32;3.67;;;;;;;15.32;nan;99326.63;5056179;28;20476;-70
2022/05/23 04:27:59;;;;;;;7.93;4.13;;;;;;;15.35;nan;99327.31;5062822;28;20118;-70
2022/05/23 04:30:26;;;;;;;9.43;4.47;;;;;;;15.40;nan;99332.25;5037412;28;20073;-70
2022/05/23 04:35:41;;;;;;;7.60;3.97;;;;;;;15.53;nan;99316.81;5039100;28;20041;-71
2022/05/23 04:38:11;;;;;;;7.63;4.78;;;;;;;15.63;nan;99312.75;5042969;28;20532;-72
2022/05/23 04:40:41;;;;;;;8.73;4.32;;;;;;;15.74;nan;99308.69;5039574;28;20132;-73
2022/05/23 04:43:13;;;;;;;9.70;4.50;;;;;;;15.88;nan;99306.16;5044330;28;20124;-74
2022/05/23 04:45:41;;;;;;;10.27;4.80;;;;;;;16.00;nan;99302.00;5043962;28;20060;-68
2022/05/23 04:51:51;;;;;;;13.40;4.63;;;;;;;16.28;nan;99288.19;5017807;28;20145;-69
2022/05/23 04:54:24;;;;;;;8.95;4.30;;;;;;;16.36;nan;99290.31;5026031;28;20058;-70
2022/05/23 04:56:52;;;;;;;8.20;4.03;;;;;;;16.43;nan;99288.19;5025582;28;20056;-69
2022/05/23 04:59:29;;;;;;;9.75;4.40;;;;;;;16.49;nan;99293.00;5044964;28;20049;-68
2022/05/23 05:01:57;;;;;;;8.18;4.32;;;;;;;16.51;nan;99296.34;5042005;28;20046;-69
2022/05/23 05:04:24;;;;;;;9.70;4.47;;;;;;;16.54;nan;99300.50;5038242;28;20045;-69
2022/05/23 05:06:52;;;;;;;6.18;3.72;;;;;;;16.57;nan;99298.59;5062264;28;20038;-69
2022/05/23 05:09:20;;;;;;;7.63;4.30;;;;;;;16.68;nan;99289.28;5044327;28;20480;-69
2022/05/23 05:11:55;;;;;;;6.90;3.95;;;;;;;16.79;nan;99278.19;5047329;28;20048;-70
2022/05/23 05:14:27;;;;;;;6.32;3.40;;;;;;;16.90;nan;99275.75;5044995;28;20041;-69
2022/05/23 05:17:04;;;;;;;9.40;3.83;;;;;;;16.98;nan;99267.50;5045363;28;20045;-70
2022/05/23 05:19:33;;;;;;;10.45;4.28;;;;;;;17.04;nan;99264.50;5043511;28;20048;-70
2022/05/23 05:22:21;;;;;;;9.43;4.32;;;;;;;17.13;nan;99258.69;5046073;28;20057;-71
2022/05/23 05:25:12;;;;;;;10.18;3.70;;;;;;;17.28;nan;99269.06;5051413;28;20049;-71
2022/05/23 05:28:00;;;;;;;7.20;3.58;;;;;;;17.39;nan;99262.22;5036754;28;20086;-69
2022/05/23 05:30:27;;;;;;;5.93;4.00;;;;;;;17.47;nan;99258.25;5040101;28;20447;-68
2022/05/23 05:33:04;;;;;;;6.95;3.88;;;;;;;17.52;nan;99259.63;5040478;28;20754;-69
2022/05/23 05:35:48;;;;;;;8.93;3.70;;;;;;;17.58;nan;99253.19;5044958;28;20040;-70
2022/05/23 05:38:40;;;;;;;8.00;3.95;;;;;;;17.61;nan;99239.09;5037440;28;20049;-69
2022/05/23 05:41:17;;;;;;;;;;;;;;;17.63;nan;99227.69;5041010;28;20042;-69
2022/05/23 05:43:57;;;;;;;5.55;3.75;;;;;;;17.67;nan;99226.50;5046830;28;19927;-69
2022/05/23 05:46:48;;;;;;;5.82;3.83;;;;;;;17.74;nan;99239.13;5048255;28;20037;-70
2022/05/23 05:49:40;;;;;;;6.22;3.72;;;;;;;17.81;nan;99232.56;5029478;28;20099;-69
2022/05/23 05:52:14;;;;;;;6.53;3.60;;;;;;;17.88;nan;99231.22;5031468;28;20112;-69
2022/05/23 05:55:00;;;;;;;6.32;3.50;;;;;;;17.93;nan;99228.28;5042442;28;20587;-70
2022/05/23 05:57:30;;;;;;;8.40;4.18;;;;;;;17.97;nan;99230.59;5040301;28;20125;-69
2022/05/23 06:00:13;;;;;;;8.48;4.13;;;;;;;18.02;nan;99219.03;5046641;28;20087;-70
2022/05/23 06:02:44;;;;;;;9.60;4.00;;;;;;;18.04;nan;99219.78;5042262;28;20050;-70
2022/05/23 06:05:18;;;;;;;7.47;3.88;;;;;;;18.05;nan;99219.66;5039233;28;20042;-70
2022/05/23 06:13:47;;;;;;;8.45;4.47;;;;;;;18.15;nan;99227.69;5035177;28;20034;-70
2022/05/23 06:16:37;;;;;;;7.90;4.68;;;;;;;18.20;nan;99219.56;5041674;28;20042;-70
2022/05/23 06:19:14;;;;;;;7.75;4.43;;;;;;;18.26;nan;99204.28;5030646;28;20073;-70
2022/05/23 06:22:05;;;;;;;7.93;4.80;;;;;;;18.37;nan;99203.56;5044477;28;20061;-70
2022/05/23 06:24:36;;;;;;;7.20;4.30;;;;;;;18.52;nan;99201.63;5049909;28;20124;-70
2022/05/23 06:27:08;;;;;;;7.78;4.30;;;;;;;18.69;nan;99203.03;5037140;28;20049;-69
2022/05/23 06:30:05;;;;;;;8.55;4.60;;;;;;;18.81;nan;99198.69;5048112;28;20050;-70
2022/05/23 06:32:55;;;;;;;6.38;4.43;;;;;;;18.92;nan;99197.94;5036393;28;20053;-70
2022/05/23 06:35:32;;;;;;;7.22;4.60;;;;;;;19.00;nan;99187.78;5039701;28;20144;-70
2022/05/23 06:37:59;;;;;;;7.65;3.97;;;;;;;19.06;nan;99183.91;5030348;28;20056;-69
2022/05/23 06:40:51;;;;;;;6.80;4.03;;;;;;;19.11;nan;99168.72;5031808;28;20049;-67
2022/05/23 06:43:40;;;;;;;11.02;3.60;;;;;;;19.26;nan;99163.31;5053240;28;20045;-71
2022/05/23 06:46:37;;;;;;;8.27;3.60;;;;;;;19.38;nan;99165.00;5051355;28;20037;-70
2022/05/23 06:49:22;;;;;;;7.10;3.75;;;;;;;19.52;nan;99154.31;5053461;28;20041;-70
2022/05/23 06:52:19;;;;;;;6.10;3.40;;;;;;;19.71;nan;99152.91;5031921;28;20443;-71
2022/05/23 06:55:15;;;;;;;10.38;3.55;;;;;;;19.91;nan;99148.78;5038827;28;20068;-70
2022/05/23 06:57:46;;;;;;;11.70;4.03;;;;;;;20.01;nan;99141.03;5033766;28;20038;-70
2022/05/23 07:00:17;;;;;;;8.13;3.60;;;;;;;20.03;nan;99144.38;5047263;28;20073;-71
2022/05/23 07:02:54;;;;;;;8.23;3.35;;;;;;;20.07;nan;99142.34;5033505;28;20046;-70
2022/05/23 07:14:05;;;;;;;5.80;3.70;;;;;;;20.60;nan;99136.41;5034262;28;20046;-71
2022/05/23 07:16:34;;;;;;;7.25;3.60;;;;;;;20.68;nan;99133.16;5052138;28;20058;-70
2022/05/23 07:19:04;;;;;;;6.72;3.67;;;;;;;20.76;nan;99128.16;5050426;28;20041;-69
2022/05/23 07:21:38;;;;;;;6.32;3.97;;;;;;;20.81;nan;99126.00;5053915;28;20046;-69
2022/05/23 07:24:13;;;;;;;5.65;3.50;;;;;;;20.91;nan;99128.69;5032184;28;20467;-70
2022/05/23 07:26:48;;;;;;;7.22;3.70;;;;;;;20.99;nan;99128.91;5049099;28;20038;-70
2022/05/23 07:29:16;;;;;;;8.27;3.67;;;;;;;21.09;nan;99136.81;5050002;28;20050;-70
2022/05/23 07:31:44;;;;;;;10.20;3.90;;;;;;;21.28;nan;99138.72;5033618;28;20135;-71
2022/05/23 07:34:12;;;;;;;8.95;3.60;;;;;;;21.50;nan;99134.28;5049347;28;20137;-70
2022/05/23 07:36:40;;;;;;;7.15;3.33;;;;;;;21.70;nan;99138.69;5049380;28;20050;-70
2022/05/23 07:39:09;;;;;;;6.63;3.60;;;;;;;21.90;nan;99135.31;5048511;28;20538;-69
2022/05/23 07:41:44;;;;;;;7.35;3.30;;;;;;;22.08;nan;99128.44;5032953;28;20085;-69
2022/05/23 07:44:14;;;;;;;5.15;2.83;;;;;;;22.32;nan;99120.25;5034408;28;20066;-70
2022/05/23 07:46:43;;;;;;;8.02;3.03;;;;;;;22.56;nan;99112.97;5052516;28;20041;-70
2022/05/23 07:49:13;;;;;;;6.43;2.55;;;;;;;22.71;nan;99105.50;5052733;28;20041;-69
2022/05/23 07:51:53;;;;;;;7.25;2.72;;;;;;;22.89;nan;99109.09;5052338;28;20099;-70
2022/05/23 08:00:34;;;;;;;4.70;2.33;;;;;;;23.65;nan;99094.25;5052091;28;20087;-70
2022/05/23 08:03:23;;;;;;;5.93;2.50;;;;;;;23.79;nan;99086.88;5051545;28;20046;-68
2022/05/23 08:06:05;;;;;;;7.78;3.05;;;;;;;23.67;nan;99094.94;5046759;28;20054;-70
2022/05/23 08:08:34;;;;;;;8.48;2.65;;;;;;;23.55;nan;99090.84;5042007;28;20053;-70
2022/05/23 08:11:01;;;;;;;6.88;2.75;;;;;;;23.48;nan;99095.84;5037979;28;20054;-69
2022/05/23 08:13:41;;;;;;;7.53;2.60;;;;;;;23.49;nan;99097.50;5037123;28;20048;-69
2022/05/23 08:16:09;;;;;;;5.25;2.60;;;;;;;23.57;nan;99091.53;5033232;28;20042;-70
2022/05/23 08:18:37;;;;;;;8.38;2.47;;;;;;;23.63;nan;99090.94;5040271;28;20049;-70
2022/05/23 08:21:07;;;;;;;6.18;2.15;;;;;;;23.67;nan;99073.06;5047986;28;20060;-70
2022/05/23 08:23:41;;;;;;;7.83;2.50;;;;;;;23.60;nan;99077.25;5033037;28;20096;-70
2022/05/23 08:26:18;;;;;;;6.88;2.67;;;;;;;23.55;nan;99080.31;5036361;28;20852;-69
2022/05/23 08:28:47;;;;;;;8.82;2.42;;;;;;;23.57;nan;99078.38;5068442;28;20058;-70
2022/05/23 08:31:20;;;;;;;5.53;2.13;;;;;;;23.56;nan;99072.28;5052429;28;20081;-71
2022/05/23 08:33:59;;;;;;;3.95;2.25;;;;;;;23.67;nan;99073.06;5031491;28;20543;-70
2022/05/23 08:36:30;;;;;;;7.90;2.38;;;;;;;23.79;nan;99074.53;5067381;28;20123;-70
2022/05/23 08:39:00;;;;;;;4.85;2.00;;;;;;;23.93;nan;99078.47;5047730;28;20535;-70
2022/05/23 08:41:51;;;;;;;10.18;2.45;;;;;;;24.02;nan;99076.81;5050507;28;20048;-70
2022/05/23 08:44:53;;;;;;;6.93;2.03;;;;;;;24.19;nan;99068.09;5052448;28;20045;-69
2022/05/23 08:47:48;;;;;;;9.40;2.80;;;;;;;24.34;nan;99072.84;5048196;28;20104;-71
2022/05/23 08:50:28;;;;;;;3.35;1.95;;;;;;;24.55;nan;99071.72;5031800;28;20825;-71
2022/05/23 08:53:05;;;;;;;5.35;2.10;;;;;;;24.62;nan;99067.50;5030921;28;20038;-70
2022/05/23 08:56:00;;;;;;;4.20;1.80;;;;;;;24.78;nan;99056.28;5035387;28;20679;-70
2022/05/23 08:58:58;;;;;;;9.18;2.60;;;;;;;25.07;nan;99048.09;5038655;28;20482;-70
2022/05/23 09:01:51;;;;;;;3.88;1.80;;;;;;;25.41;nan;99043.84;5032848;28;20065;-69
2022/05/23 09:04:37;;;;;;;3.80;1.73;;;;;;;25.49;nan;99046.53;5047539;28;20143;-70
2022/05/23 09:07:07;;;;;;;7.40;1.90;;;;;;;25.33;nan;99035.88;5051488;28;20558;-70
2022/05/23 09:09:36;;;;;;;3.40;1.70;;;;;;;25.47;nan;99026.59;5042014;28;20522;-70
2022/05/23 09:12:15;;;;;;;3.55;2.10;;;;;;;25.66;nan;99023.69;5038265;28;20052;-70
2022/05/23 09:14:44;;;;;;;3.88;2.03;;;;;;;25.65;nan;99024.66;5034372;28;20505;-70
2022/05/23 09:17:32;;;;;;;8.60;2.30;;;;;;;25.68;nan;99023.53;5048196;28;20046;-70
2022/05/23 09:20:12;;;;;;;6.78;1.80;;;;;;;25.73;nan;99018.59;5053328;28;20041;-70
2022/05/23 09:22:52;;;;;;;3.92;1.77;;;;;;;25.85;nan;99012.03;5053033;28;20038;-70
2022/05/23 09:25:27;;;;;;;6.13;2.13;;;;;;;26.33;nan;99004.38;5052008;28;20068;-70
2022/05/23 09:28:22;;;;;;;6.28;2.03;;;;;;;26.46;nan;98995.94;5053027;28;20080;-70
2022/05/23 09:31:18;;;;;;;4.68;2.00;;;;;;;26.49;nan;98997.44;5051759;28;20136;-70
2022/05/23 09:33:50;;;;;;;3.33;1.48;;;;;;;26.39;nan;98992.31;5052772;28;20045;-70
2022/05/23 09:36:36;;;;;;;3.50;1.60;;;;;;;26.18;nan;98988.34;5049320;28;20069;-70
2022/05/23 09:39:20;;;;;;;4.32;1.90;;;;;;;25.94;nan;98972.50;5032210;28;20053;-70
2022/05/23 09:47:54;;;;;;;3.85;1.60;;;;;;;25.22;nan;98952.66;5049844;28;20112;-69
2022/05/23 09:50:53;;;;;;;9.98;1.98;;;;;;;25.05;nan;98946.47;5051810;28;20046;-69
2022/05/23 09:53:31;;;;;;;5.28;2.03;;;;;;;24.88;nan;98943.78;5051857;28;20084;-70
2022/05/23 09:56:32;;;;;;;4.47;1.70;;;;;;;24.64;nan;98933.91;5052328;28;20577;-69
2022/05/23 09:59:06;;;;;;;3.95;1.70;;;;;;;24.48;nan;98932.00;5051814;28;20033;-71
2022/05/23 10:01:41;;;;;;;5.28;1.88;;;;;;;24.32;nan;98924.81;5050311;28;20045;-72
2022/05/23 10:04:31;;;;;;;8.20;2.08;;;;;;;24.16;nan;98933.41;5032410;28;20049;-70
2022/05/23 10:07:00;;;;;;;3.08;1.63;;;;;;;24.08;nan;98925.47;5046463;28;20037;-70
2022/05/23 10:09:33;;;;;;;5.50;1.80;;;;;;;24.06;nan;98917.72;5067710;28;20526;-70
2022/05/23 10:12:33;;;;;;;6.78;1.80;;;;;;;24.00;nan;98915.69;5060557;28;20114;-70
2022/05/23 10:15:12;;;;;;;3.75;1.80;;;;;;;23.94;nan;98908.38;5052001;28;20100;-70
2022/05/23 10:17:41;;;;;;;4.53;1.88;;;;;;;23.84;nan;98911.06;5041659;28;20104;-70
2022/05/23 10:20:39;;;;;;;3.72;1.67;;;;;;;23.83;nan;98894.50;5050753;28;20484;-69
2022/05/23 10:23:21;;;;;;;4.20;1.85;;;;;;;24.04;nan;98886.28;5032768;28;20069;-69
2022/05/23 10:26:25;;;;;;;3.75;1.98;;;;;;;24.33;nan;98890.44;5034978;28;20042;-69
2022/05/23 10:29:10;;;;;;;4.55;2.20;;;;;;;24.80;nan;98902.41;5049406;28;20053;-70
2022/05/23 10:31:56;;;;;;;5.95;1.70;;;;;;;25.21;nan;98893.88;5054031;28;20042;-69
2022/05/23 10:34:40;;;;;;;4.57;2.15;;;;;;;25.66;nan;98885.72;5055043;28;20048;-70
2022/05/23 10:37:25;;;;;;;9.35;2.35;;;;;;;25.84;nan;98889.03;5060486;28;20177;-70
2022/05/23 10:43:01;;;;;;;3.92;1.77;;;;;;;25.92;nan;98896.13;5062140;28;20096;-69
2022/05/23 10:45:54;;;;;;;4.30;1.83;;;;;;;26.03;nan;98895.81;5060339;28;20124;-69
2022/05/23 10:48:54;;;;;;;7.50;1.67;;;;;;;26.34;nan;98883.78;5055824;28;20464;-69
2022/05/23 10:51:42;;;;;;;4.35;1.75;;;;;;;26.55;nan;98892.97;5043570;28;20050;-71
2022/05/23 10:54:35;;;;;;;4.20;1.55;;;;;;;26.71;nan;98884.19;5038312;28;20169;-69
2022/05/23 10:57:23;;;;;;;11.88;2.30;;;;;;;26.91;nan;98874.06;5052104;28;20048;-70
2022/05/23 11:00:03;;;;;;;5.55;1.70;;;;;;;27.35;nan;98873.50;5053790;28;20462;-69
2022/05/23 11:03:00;;;;;;;4.45;1.95;;;;;;;27.36;nan;98872.53;5054964;28;20715;-71
2022/05/23 11:05:50;;;;;;;15.05;2.13;;;;;;;27.33;nan;98858.81;5054503;28;20056;-71
2022/05/23 11:08:42;;;;;;;6.50;2.00;;;;;;;27.58;nan;98856.84;5054955;28;20100;-70
2022/05/23 11:11:29;;;;;;;5.65;2.00;;;;;;;27.64;nan;98847.38;5052791;28;20474;-71
2022/05/23 11:14:08;;;;;;;4.50;2.08;;;;;;;27.66;nan;98833.00;5053535;28;20093;-70
2022/05/23 11:17:12;;;;;;;4.70;2.40;;;;;;;27.60;nan;98831.06;5054606;28;20115;-70
2022/05/23 11:20:16;;;;;;;7.50;2.55;;;;;;;27.53;nan;98822.19;5054219;28;20131;-71
2022/05/23 11:22:53;;;;;;;6.38;2.20;;;;;;;27.60;nan;98825.75;5053547;28;20438;-71
2022/05/23 11:25:30;;;;;;;5.53;2.28;;;;;;;27.68;nan;98814.31;5040052;28;20477;-70
2022/05/23 11:34:44;;;;;;;4.93;1.85;;;;;;;27.70;nan;98777.91;5052495;28;20048;-70
2022/05/23 11:39:54;;;;;;;6.20;1.80;;;;;;;28.01;nan;98763.72;5046839;28;20092;-70
2022/05/23 11:42:38;;;;;;;4.78;1.80;;;;;;;28.26;nan;98756.38;5048756;28;20044;-71
2022/05/23 11:47:57;;;;;;;5.55;1.80;;;;;;;28.34;nan;98742.19;5049268;28;20037;-70
2022/05/23 11:50:47;;;;;;;5.32;1.70;;;;;;;28.39;nan;98731.06;5050551;28;20037;-71
2022/05/23 11:53:34;;;;;;;4.70;1.80;;;;;;;28.65;nan;98731.38;5049273;28;20053;-68
2022/05/23 11:56:09;;;;;;;3.60;1.48;;;;;;;28.80;nan;98715.47;5048974;28;20835;-68
2022/05/23 11:58:49;;;;;;;5.28;1.45;;;;;;;28.88;nan;98716.34;5049021;28;20092;-69
2022/05/23 12:01:24;;;;;;;5.10;1.52;;;;;;;28.57;nan;98715.59;5049250;28;20052;-70
2022/05/23 12:03:52;;;;;;;5.93;1.63;;;;;;;28.31;nan;98716.91;5035315;28;20046;-70
2022/05/23 12:06:29;;;;;;;10.70;1.80;;;;;;;28.00;nan;98712.63;5030657;28;20113;-69
2022/05/23 12:09:14;;;;;;;5.97;1.63;;;;;;;27.81;nan;98706.06;5041072;28;20247;-69
2022/05/23 12:11:46;;;;;;;3.47;1.48;;;;;;;27.66;nan;98705.22;5049384;28;20952;-71
2022/05/23 12:14:41;;;;;;;3.47;1.38;;;;;;;27.64;nan;98691.34;5050302;28;20115;-70
2022/05/23 12:17:25;;;;;;;5.88;1.30;;;;;;;27.70;nan;98698.56;5049149;28;20511;-69
2022/05/23 12:19:57;;;;;;;6.13;2.10;;;;;;;28.00;nan;98703.88;5044701;28;20052;-69
2022/05/23 12:23:10;;;;;;;6.10;1.58;;;;;;;28.30;nan;98702.03;5049219;28;20065;-70
2022/05/23 12:25:39;;;;;;;3.58;1.60;;;;;;;28.47;nan;98700.00;5048544;28;20092;-70
2022/05/23 12:28:14;;;;;;;9.77;1.77;;;;;;;28.54;nan;98694.78;5043903;28;20049;-70
2022/05/23 12:31:03;;;;;;;5.38;1.70;;;;;;;28.43;nan;98688.16;5034309;28;20042;-71
2022/05/23 12:33:32;;;;;;;5.38;1.67;;;;;;;28.28;nan;98685.53;5043318;28;20034;-70
2022/05/23 12:36:11;;;;;;;5.78;1.85;;;;;;;28.23;nan;98679.16;5038147;28;20046;-71
2022/05/23 12:38:57;;;;;;;4.00;1.73;;;;;;;28.23;nan;98679.97;5040996;28;20037;-70
2022/05/23 12:41:53;;;;;;;4.43;1.80;;;;;;;28.30;nan;98680.84;5038649;28;20519;-70
2022/05/23 12:44:35;;;;;;;4.93;1.60;;;;;;;28.39;nan;98670.97;5036436;28;20113;-70
2022/05/23 12:48:00;;;;;;;4.10;1.53;;;;;;;28.32;nan;98662.97;5042372;28;20459;-70
2022/05/23 12:50:51;;;;;;;5.90;1.50;;;;;;;28.15;nan;98662.34;5041000;28;20045;-69
2022/05/23 12:53:52;;;;;;;5.25;1.80;;;;;;;27.87;nan;98664.81;5037710;28;20057;-68
2022/05/23 12:56:43;;;;;;;6.53;1.65;;;;;;;27.57;nan;98659.53;5037303;28;20041;-69
2022/05/23 12:59:58;;;;;;;3.42;1.67;;;;;;;27.22;nan;98670.53;5043127;28;20128;-71
2022/05/23 13:02:51;;;;;;;4.70;1.60;;;;;;;26.85;nan;98658.94;5016171;28;20046;-69
2022/05/23 13:05:27;;;;;;;6.32;1.95;;;;;;;26.67;nan;98656.56;5039175;28;20926;-68
2022/05/23 13:08:06;;;;;;;4.50;1.75;;;;;;;26.60;nan;98650.34;5045034;28;20072;-69
2022/05/23 13:10:40;;;;;;;6.03;2.05;;;;;;;26.43;nan;98642.53;5043419;28;20052;-68
2022/05/23 13:13:29;;;;;;;6.43;1.67;;;;;;;26.33;nan;98652.50;5035442;28;20037;-70
2022/05/23 13:16:13;;;;;;;4.68;1.70;;;;;;;26.22;nan;98651.03;5035769;28;20053;-70
2022/05/23 13:27:09;;;;;;;5.85;1.60;;;;;;;26.53;nan;98623.81;5040352;28;20180;-69
2022/05/23 13:29:37;;;;;;;4.90;1.75;;;;;;;26.61;nan;98618.47;5049268;28;20490;-69
2022/05/23 13:32:12;;;;;;;5.13;1.65;;;;;;;26.60;nan;98608.94;5048457;28;20044;-69
2022/05/23 13:34:44;;;;;;;5.88;1.90;;;;;;;26.57;nan;98605.81;5034758;28;20042;-68
2022/05/23 13:37:37;;;;;;;7.07;2.17;;;;;;;26.58;nan;98603.00;5049490;28;20041;-68
2022/05/23 13:40:10;;;;;;;10.52;1.90;;;;;;;26.66;nan;98597.66;5049068;28;20045;-69
2022/05/23 13:42:39;;;;;;;4.50;1.80;;;;;;;26.84;nan;98590.47;5041752;28;20558;-71
2022/05/23 13:45:25;;;;;;;5.13;1.90;;;;;;;27.10;nan;98577.66;5035190;28;20885;-69
2022/05/23 13:48:03;;;;;;;3.97;1.85;;;;;;;27.39;nan;98577.88;5037702;28;20054;-70
2022/05/23 13:50:43;;;;;;;9.57;2.22;;;;;;;27.66;nan;98565.88;5037854;28;20042;-70